createdAt,value
2019-05-06T00:01:57.942Z,10.47
2019-05-06T00:04:21.372Z,9.97
2019-05-06T00:06:44.829Z,10.13
2019-05-06T00:09:08.493Z,8.37
2019-05-06T00:11:31.901Z,7.70
2019-05-06T00:13:55.346Z,9.13
2019-05-06T00:16:18.770Z,11.87
2019-05-06T00:18:44.730Z,9.57
2019-05-06T00:21:07.373Z,11.93
2019-05-06T00:23:32.465Z,7.50
2019-05-06T00:26:04.073Z,7.23
2019-05-06T00:28:41.153Z,7.97
2019-05-06T00:31:12.915Z,8.83
2019-05-06T00:33:34.005Z,8.90
2019-05-06T00:36:00.342Z,9.20
2019-05-06T00:38:24.503Z,8.83
2019-05-06T00:40:58.201Z,9.43
2019-05-06T00:43:23.551Z,7.87
2019-05-06T00:45:46.801Z,11.20
2019-05-06T00:48:10.216Z,9.93
2019-05-06T00:50:34.849Z,6.77
2019-05-06T00:52:59.945Z,7.57
2019-05-06T00:55:24.151Z,8.03
2019-05-06T00:57:47.628Z,6.90
2019-05-06T01:00:13.564Z,9.03
2019-05-06T01:02:36.981Z,10.63
2019-05-06T01:05:00.889Z,10.90
2019-05-06T01:07:24.343Z,8.27
2019-05-06T01:09:47.772Z,10.10
2019-05-06T01:12:11.511Z,9.40
2019-05-06T01:14:36.894Z,11.93
2019-05-06T01:17:00.316Z,12.30
2019-05-06T01:19:24.126Z,11.10
2019-05-06T01:21:47.550Z,10.70
2019-05-06T01:24:10.993Z,10.97
2019-05-06T01:26:34.411Z,8.00
2019-05-06T01:28:57.846Z,8.07
2019-05-06T01:31:21.311Z,10.20
2019-05-06T01:33:45.398Z,10.40
2019-05-06T01:36:10.710Z,9.73
2019-05-06T01:38:38.144Z,8.70
2019-05-06T01:41:03.969Z,7.67
2019-05-06T01:43:29.206Z,12.23
2019-05-06T01:45:53.650Z,11.83
2019-05-06T01:48:19.099Z,13.73
2019-05-06T01:50:44.496Z,9.77
2019-05-06T01:53:07.963Z,9.30
2019-05-06T01:55:31.404Z,9.80
2019-05-06T01:57:54.861Z,9.57
2019-05-06T02:00:18.461Z,7.60
2019-05-06T02:02:43.880Z,10.97
2019-05-06T02:05:07.135Z,12.27
2019-05-06T02:07:30.551Z,17.67
2019-05-06T02:09:54.396Z,13.97
2019-05-06T02:12:17.893Z,16.93
2019-05-06T02:14:43.488Z,19.97
2019-05-06T02:17:06.512Z,11.93
2019-05-06T02:19:29.931Z,10.03
2019-05-06T02:21:55.023Z,11.13
2019-05-06T02:24:36.761Z,8.10
2019-05-06T02:27:00.220Z,11.47
2019-05-06T02:29:34.096Z,10.93
2019-05-06T02:32:24.395Z,11.60
2019-05-06T02:34:37.443Z,14.23
2019-05-06T02:37:08.145Z,11.67
2019-05-06T02:39:34.141Z,16.50
2019-05-06T02:41:56.742Z,24.85
2019-05-06T02:44:20.200Z,19.33
2019-05-06T02:46:46.988Z,17.90
2019-05-06T02:49:28.387Z,15.80
2019-05-06T02:51:53.536Z,16.00
2019-05-06T02:54:17.115Z,16.27
2019-05-06T02:56:43.329Z,11.33
2019-05-06T02:59:05.776Z,12.50
2019-05-06T03:01:29.340Z,9.43
2019-05-06T03:03:53.575Z,14.87
2019-05-06T03:06:17.405Z,11.40
2019-05-06T03:08:43.409Z,11.67
2019-05-06T03:11:05.978Z,10.73
2019-05-06T03:13:29.412Z,14.90
2019-05-06T03:15:54.129Z,13.57
2019-05-06T03:18:17.995Z,12.00
2019-05-06T03:20:45.672Z,12.80
2019-05-06T03:23:13.979Z,16.40
2019-05-06T03:25:36.321Z,11.90
2019-05-06T03:27:59.744Z,15.30
2019-05-06T03:30:25.650Z,13.03
2019-05-06T03:33:23.462Z,11.10
2019-05-06T03:35:31.428Z,13.00
2019-05-06T03:37:38.744Z,13.87
2019-05-06T03:40:03.049Z,16.77
2019-05-06T03:42:26.710Z,16.73
2019-05-06T03:44:53.337Z,12.23
2019-05-06T03:47:36.743Z,13.13
2019-05-06T03:50:04.295Z,14.20
2019-05-06T03:52:28.725Z,22.00
2019-05-06T03:54:53.870Z,15.17
2019-05-06T03:57:18.707Z,18.03
2019-05-06T03:59:43.536Z,15.20
2019-05-06T04:02:08.132Z,18.53
2019-05-06T04:04:33.235Z,12.67
2019-05-06T04:06:57.442Z,13.27
2019-05-06T04:09:23.829Z,15.90
2019-05-06T04:11:46.294Z,14.53
2019-05-06T04:14:14.032Z,15.20
2019-05-06T04:16:38.785Z,16.63
2019-05-06T04:19:13.184Z,16.73
2019-05-06T04:21:38.553Z,12.67
2019-05-06T04:24:04.362Z,15.93
2019-05-06T04:26:32.774Z,14.40
2019-05-06T04:28:55.166Z,15.53
2019-05-06T04:31:18.687Z,14.13
2019-05-06T04:33:55.435Z,13.73
2019-05-06T04:36:07.632Z,14.63
2019-05-06T04:38:33.531Z,14.73
2019-05-06T04:40:56.598Z,12.03
2019-05-06T04:43:20.132Z,11.27
2019-05-06T04:45:43.659Z,13.97
2019-05-06T04:48:07.091Z,13.83
2019-05-06T04:50:33.153Z,11.73
2019-05-06T04:53:04.888Z,12.30
2019-05-06T04:55:28.214Z,15.13
2019-05-06T04:57:53.594Z,16.33
2019-05-06T05:00:17.164Z,14.47
2019-05-06T05:02:45.854Z,16.80
2019-05-06T05:05:06.690Z,17.60
2019-05-06T05:07:30.144Z,15.80
2019-05-06T05:09:55.459Z,16.80
2019-05-06T05:12:22.684Z,17.60
2019-05-06T05:15:03.294Z,15.87
2019-05-06T05:17:32.988Z,17.90
2019-05-06T05:19:56.621Z,14.47
2019-05-06T05:22:21.868Z,18.77
2019-05-06T05:24:46.124Z,16.70
2019-05-06T05:27:09.594Z,18.77
2019-05-06T05:29:33.159Z,18.57
2019-05-06T05:31:56.627Z,25.20
2019-05-06T05:34:22.307Z,20.03
2019-05-06T05:36:45.235Z,19.50
2019-05-06T05:39:08.666Z,21.73
2019-05-06T05:41:33.115Z,23.10
2019-05-06T05:43:58.572Z,22.57
2019-05-06T05:46:22.100Z,17.73
2019-05-06T05:48:56.864Z,18.33
2019-05-06T05:51:22.246Z,20.17
2019-05-06T05:53:45.794Z,20.07
2019-05-06T05:56:12.241Z,20.27
2019-05-06T05:58:34.421Z,19.03
2019-05-06T06:00:57.888Z,19.40
2019-05-06T06:03:22.095Z,20.87
2019-05-06T06:05:45.989Z,18.27
2019-05-06T06:08:09.489Z,15.50
2019-05-06T06:10:52.241Z,20.00
2019-05-06T06:13:15.184Z,24.13
2019-05-06T06:15:43.389Z,20.30
2019-05-06T06:18:24.737Z,15.00
2019-05-06T06:20:49.840Z,15.03
2019-05-06T06:23:14.903Z,17.30
2019-05-06T06:25:38.650Z,17.57
2019-05-06T06:28:02.732Z,24.67
2019-05-06T06:30:33.692Z,17.03
2019-05-06T06:32:57.185Z,21.10
2019-05-06T06:35:25.387Z,16.17
2019-05-06T06:38:08.674Z,15.23
2019-05-06T06:40:32.987Z,15.83
2019-05-06T06:42:58.194Z,14.93
2019-05-06T06:45:23.058Z,19.57
2019-05-06T06:47:46.733Z,14.00
2019-05-06T06:50:12.448Z,15.87
2019-05-06T06:52:35.527Z,19.50
2019-05-06T06:54:58.944Z,13.97
2019-05-06T06:57:24.052Z,17.53
2019-05-06T06:59:49.115Z,15.37
2019-05-06T07:02:17.167Z,17.00
2019-05-06T07:04:48.224Z,15.93
2019-05-06T07:07:13.172Z,18.17
2019-05-06T07:09:36.987Z,13.13
2019-05-06T07:12:00.490Z,13.00
2019-05-06T07:14:23.915Z,14.93
2019-05-06T07:16:47.341Z,10.70
2019-05-06T07:19:12.793Z,12.87
2019-05-06T07:21:38.338Z,8.27
2019-05-06T07:24:02.285Z,8.07
2019-05-06T07:26:27.356Z,10.57
2019-05-06T07:28:52.663Z,13.03
2019-05-06T07:31:22.354Z,9.80
2019-05-06T07:33:42.905Z,10.77
2019-05-06T07:36:06.889Z,9.93
2019-05-06T07:38:32.352Z,10.37
2019-05-06T07:40:59.880Z,16.10
2019-05-06T07:43:42.070Z,12.03
2019-05-06T07:46:23.649Z,16.40
2019-05-06T07:48:47.815Z,12.60
2019-05-06T07:51:12.459Z,10.93
2019-05-06T07:53:36.081Z,9.20
2019-05-06T07:55:59.510Z,9.50
2019-05-06T07:58:22.963Z,9.17
2019-05-06T08:00:46.412Z,12.30
2019-05-06T08:03:09.839Z,12.93
2019-05-06T08:05:33.380Z,8.37
2019-05-06T08:07:56.808Z,11.37
2019-05-06T08:10:22.043Z,11.93
2019-05-06T08:12:45.925Z,10.43
2019-05-06T08:15:12.548Z,11.23
2019-05-06T08:17:36.347Z,14.40
2019-05-06T08:20:02.561Z,8.57
2019-05-06T08:22:33.361Z,9.87
2019-05-06T08:24:57.308Z,10.47
2019-05-06T08:27:22.679Z,8.93
2019-05-06T08:29:45.937Z,12.33
2019-05-06T08:32:09.402Z,14.13
2019-05-06T08:34:34.283Z,12.13
2019-05-06T08:36:59.479Z,9.55
2019-05-06T08:39:22.924Z,10.37
2019-05-06T08:41:46.400Z,11.33
2019-05-06T08:44:09.923Z,7.00
2019-05-06T08:46:33.444Z,10.97
2019-05-06T08:48:56.878Z,10.47
2019-05-06T08:51:22.429Z,11.27
2019-05-06T08:53:50.245Z,9.87
2019-05-06T08:56:16.549Z,11.30
2019-05-06T08:58:46.925Z,9.93
2019-05-06T09:01:12.462Z,11.43
2019-05-06T09:03:36.086Z,9.87
2019-05-06T09:05:59.878Z,10.13
2019-05-06T09:08:24.434Z,10.00
2019-05-06T09:10:47.858Z,11.73
2019-05-06T09:13:12.334Z,8.30
2019-05-06T09:15:35.852Z,8.67
2019-05-06T09:17:59.290Z,11.43
2019-05-06T09:20:23.389Z,14.83
2019-05-06T09:22:47.282Z,9.53
2019-05-06T09:25:12.867Z,7.97
2019-05-06T09:27:50.083Z,6.90
2019-05-06T09:30:15.435Z,9.53
2019-05-06T09:32:42.675Z,9.57
2019-05-06T09:35:07.392Z,7.37
2019-05-06T09:37:32.492Z,9.17
2019-05-06T09:39:56.064Z,8.20
2019-05-06T09:42:19.562Z,8.53
2019-05-06T09:44:44.564Z,5.67
2019-05-06T09:47:09.625Z,9.03
2019-05-06T09:49:34.887Z,4.47
2019-05-06T09:51:58.315Z,6.20
2019-05-06T09:54:23.777Z,6.40
2019-05-06T09:56:48.866Z,5.33
2019-05-06T09:59:12.923Z,8.07
2019-05-06T10:01:36.507Z,6.70
2019-05-06T10:04:03.278Z,4.27
2019-05-06T10:06:26.980Z,5.47
2019-05-06T10:08:50.470Z,4.40
2019-05-06T10:11:13.931Z,4.13
2019-05-06T10:13:37.355Z,5.90
2019-05-06T10:16:03.001Z,6.70
2019-05-06T10:18:26.352Z,4.43
2019-05-06T10:20:49.779Z,7.53
2019-05-06T10:23:14.646Z,5.50
2019-05-06T10:25:38.613Z,6.53
2019-05-06T10:28:03.756Z,5.87
2019-05-06T10:30:27.161Z,5.63
2019-05-06T10:32:52.847Z,5.93
2019-05-06T10:35:16.869Z,4.17
2019-05-06T10:37:49.321Z,5.50
2019-05-06T10:40:22.613Z,4.90
2019-05-06T10:43:05.591Z,3.80
2019-05-06T10:45:32.405Z,6.57
2019-05-06T10:47:56.732Z,5.87
2019-05-06T10:50:20.152Z,4.33
2019-05-06T10:52:45.253Z,5.03
2019-05-06T10:55:08.745Z,4.43
2019-05-06T10:57:33.854Z,10.00
2019-05-06T10:59:57.298Z,2.97
2019-05-06T11:02:23.244Z,6.67
2019-05-06T11:04:46.869Z,7.90
2019-05-06T11:07:12.295Z,5.00
2019-05-06T11:09:35.481Z,4.57
2019-05-06T11:11:58.909Z,4.27
2019-05-06T11:14:22.890Z,5.60
2019-05-06T11:16:46.464Z,4.73
2019-05-06T11:19:10.179Z,6.27
2019-05-06T11:21:33.644Z,8.27
2019-05-06T11:23:57.070Z,4.00
2019-05-06T11:26:20.539Z,5.87
2019-05-06T11:28:48.030Z,4.93
2019-05-06T11:31:28.573Z,4.63
2019-05-06T11:34:02.569Z,5.37
2019-05-06T11:36:27.642Z,4.93
2019-05-06T11:38:52.276Z,3.13
2019-05-06T11:41:15.893Z,3.10
2019-05-06T11:43:39.313Z,4.27
2019-05-06T11:46:02.925Z,5.33
2019-05-06T11:48:26.364Z,5.20
2019-05-06T11:50:51.756Z,4.07
2019-05-06T11:53:15.173Z,3.13
2019-05-06T11:55:39.080Z,4.67
2019-05-06T11:58:02.954Z,3.17
2019-05-06T12:00:28.007Z,5.40
2019-05-06T12:02:53.339Z,3.80
2019-05-06T12:05:16.697Z,4.43
2019-05-06T12:07:40.501Z,4.73
2019-05-06T12:10:05.260Z,4.07
2019-05-06T12:12:28.708Z,3.77
2019-05-06T12:14:52.810Z,5.93
2019-05-06T12:17:16.562Z,4.37
2019-05-06T12:19:40.013Z,4.07
2019-05-06T12:22:03.471Z,6.20
2019-05-06T12:24:26.908Z,6.00
2019-05-06T12:26:52.203Z,5.90
2019-05-06T12:29:15.583Z,3.90
2019-05-06T12:31:39.003Z,3.93
2019-05-06T12:34:02.869Z,3.37
2019-05-06T12:36:26.366Z,5.07
2019-05-06T12:38:55.137Z,5.77
2019-05-06T12:41:18.611Z,4.50
2019-05-06T12:43:46.429Z,4.30
2019-05-06T12:46:13.298Z,4.53
2019-05-06T12:48:40.890Z,4.87
2019-05-06T12:51:04.377Z,4.47
2019-05-06T12:53:27.909Z,4.27
2019-05-06T12:55:52.030Z,5.70
2019-05-06T12:58:19.948Z,5.10
2019-05-06T13:00:40.858Z,4.37
2019-05-06T13:03:04.646Z,3.53
2019-05-06T13:05:28.110Z,2.90
2019-05-06T13:07:52.714Z,4.60
2019-05-06T13:10:18.947Z,3.87
2019-05-06T13:12:44.230Z,4.07
2019-05-06T13:15:08.336Z,2.90
2019-05-06T13:17:32.912Z,4.80
2019-05-06T13:19:56.446Z,3.67
2019-05-06T13:22:39.812Z,7.45
2019-05-06T13:25:04.195Z,5.10
2019-05-06T13:27:27.951Z,4.60
2019-05-06T13:29:51.465Z,5.00
2019-05-06T13:32:16.563Z,3.47
2019-05-06T13:34:42.328Z,3.00
2019-05-06T13:37:05.324Z,3.13
2019-05-06T13:39:28.904Z,3.83
2019-05-06T13:41:52.934Z,5.70
2019-05-06T13:44:17.135Z,5.57
2019-05-06T13:46:42.204Z,4.67
2019-05-06T13:49:07.413Z,4.53
2019-05-06T13:51:32.540Z,4.90
2019-05-06T13:53:55.939Z,6.17
2019-05-06T13:56:19.394Z,3.73
2019-05-06T13:58:43.205Z,5.37
2019-05-06T14:01:08.364Z,5.97
2019-05-06T14:03:32.257Z,3.67
2019-05-06T14:05:55.777Z,3.13
2019-05-06T14:08:19.212Z,6.07
2019-05-06T14:10:42.629Z,3.67
2019-05-06T14:13:06.094Z,4.17
2019-05-06T14:15:29.518Z,4.20
2019-05-06T14:17:53.435Z,3.67
2019-05-06T14:20:17.040Z,5.77
2019-05-06T14:22:40.499Z,6.30
2019-05-06T14:25:12.679Z,3.80
2019-05-06T14:27:36.258Z,4.20
2019-05-06T14:30:04.526Z,4.40
2019-05-06T14:32:26.507Z,3.73
2019-05-06T14:34:51.975Z,3.37
2019-05-06T14:37:15.108Z,4.23
2019-05-06T14:39:52.116Z,4.63
2019-05-06T14:42:05.686Z,6.03
2019-05-06T14:44:29.094Z,5.73
2019-05-06T14:46:54.201Z,8.67
2019-05-06T14:49:17.645Z,5.50
2019-05-06T14:51:42.611Z,4.07
2019-05-06T14:54:06.146Z,5.97
2019-05-06T14:56:32.107Z,3.23
2019-05-06T14:59:05.769Z,6.10
2019-05-06T15:01:29.195Z,4.53
2019-05-06T15:03:53.439Z,6.50
2019-05-06T15:06:16.861Z,3.50
2019-05-06T15:08:42.622Z,3.30
2019-05-06T15:11:05.788Z,5.83
2019-05-06T15:13:29.213Z,3.33
2019-05-06T15:15:52.660Z,4.50
2019-05-06T15:18:16.394Z,5.00
2019-05-06T15:20:39.820Z,5.10
2019-05-06T15:23:04.565Z,3.70
2019-05-06T15:25:28.098Z,4.63
2019-05-06T15:27:53.192Z,4.63
2019-05-06T15:30:18.583Z,3.87
2019-05-06T15:32:42.007Z,5.47
2019-05-06T15:35:09.232Z,3.37
2019-05-06T15:37:34.290Z,5.97
2019-05-06T15:39:57.710Z,3.13
2019-05-06T15:42:22.447Z,4.57
2019-05-06T15:44:46.004Z,4.43
2019-05-06T15:47:09.446Z,3.87
2019-05-06T15:49:32.864Z,5.57
2019-05-06T15:51:56.326Z,3.83
2019-05-06T15:54:20.081Z,4.83
2019-05-06T15:56:43.558Z,4.03
2019-05-06T15:59:06.986Z,8.40
2019-05-06T16:01:33.201Z,3.60
2019-05-06T16:03:55.625Z,5.00
2019-05-06T16:06:19.068Z,4.77
2019-05-06T16:08:42.834Z,6.00
2019-05-06T16:11:06.327Z,7.93
2019-05-06T16:13:29.789Z,4.97
2019-05-06T16:15:53.327Z,4.90
2019-05-06T16:18:16.752Z,3.03
2019-05-06T16:20:40.208Z,5.20
2019-05-06T16:23:11.528Z,6.87
2019-05-06T16:25:34.953Z,5.53
2019-05-06T16:27:58.410Z,4.20
2019-05-06T16:30:24.530Z,4.67
2019-05-06T16:32:47.425Z,5.87
2019-05-06T16:35:11.957Z,4.62
2019-05-06T16:37:36.575Z,5.43
2019-05-06T16:40:02.322Z,4.03
2019-05-06T16:42:25.185Z,8.43
2019-05-06T16:44:48.608Z,5.37
2019-05-06T16:47:13.705Z,4.73
2019-05-06T16:49:37.148Z,5.83
2019-05-06T16:52:02.527Z,4.40
2019-05-06T16:54:26.838Z,7.70
2019-05-06T16:56:54.600Z,3.57
2019-05-06T16:59:18.076Z,5.60
2019-05-06T17:01:43.173Z,4.07
2019-05-06T17:04:26.269Z,7.83
2019-05-06T17:06:52.421Z,6.37
2019-05-06T17:09:20.881Z,3.70
2019-05-06T17:11:42.645Z,4.80
2019-05-06T17:14:06.994Z,3.43
2019-05-06T17:16:30.424Z,4.17
2019-05-06T17:18:56.418Z,4.43
2019-05-06T17:21:19.054Z,5.90
2019-05-06T17:23:42.505Z,4.07
2019-05-06T17:26:05.937Z,5.27
2019-05-06T17:28:47.103Z,4.20
2019-05-06T17:31:13.198Z,4.87
2019-05-06T17:33:38.397Z,5.03
2019-05-06T17:36:03.081Z,3.33
2019-05-06T17:38:28.269Z,4.80
2019-05-06T17:40:52.390Z,4.03
2019-05-06T17:43:15.935Z,3.60
2019-05-06T17:45:43.041Z,5.50
2019-05-06T17:48:27.375Z,5.10
2019-05-06T17:51:07.256Z,4.50
2019-05-06T17:53:32.134Z,6.13
2019-05-06T17:55:55.847Z,4.23
2019-05-06T17:58:19.289Z,4.90
2019-05-06T18:00:43.045Z,6.03
2019-05-06T18:03:06.534Z,5.93
2019-05-06T18:05:32.352Z,5.20
2019-05-06T18:07:55.180Z,5.73
2019-05-06T18:10:18.708Z,4.70
2019-05-06T18:12:42.140Z,6.87
2019-05-06T18:15:06.951Z,6.70
2019-05-06T18:17:30.364Z,6.83
2019-05-06T18:19:53.833Z,7.13
2019-05-06T18:22:17.276Z,6.67
2019-05-06T18:24:40.699Z,7.00
2019-05-06T18:27:04.183Z,7.30
2019-05-06T18:29:27.641Z,5.43
2019-05-06T18:31:52.499Z,6.20
2019-05-06T18:34:16.099Z,5.37
2019-05-06T18:36:39.563Z,7.37
2019-05-06T18:39:04.666Z,6.77
2019-05-06T18:41:29.428Z,6.10
2019-05-06T18:43:53.599Z,8.60
2019-05-06T18:46:17.177Z,4.87
2019-05-06T18:48:42.681Z,7.37
2019-05-06T18:51:05.825Z,8.23
2019-05-06T18:53:29.347Z,10.30
2019-05-06T18:55:52.806Z,6.92
2019-05-06T18:58:16.273Z,7.40
2019-05-06T19:00:39.730Z,7.33
2019-05-06T19:03:03.149Z,6.33
2019-05-06T19:05:40.150Z,6.33
2019-05-06T19:08:05.886Z,6.77
2019-05-06T19:10:33.244Z,6.77
2019-05-06T19:12:56.139Z,5.50
2019-05-06T19:15:19.557Z,5.50
2019-05-06T19:17:44.389Z,5.33
2019-05-06T19:20:08.063Z,5.97
2019-05-06T19:22:32.834Z,6.87
2019-05-06T19:24:56.314Z,5.60
2019-05-06T19:27:19.772Z,4.97
2019-05-06T19:29:43.437Z,9.30
2019-05-06T19:32:06.880Z,6.07
2019-05-06T19:34:34.508Z,7.07
2019-05-06T19:36:55.533Z,8.67
2019-05-06T19:39:18.951Z,9.33
2019-05-06T19:41:42.408Z,12.23
2019-05-06T19:44:06.100Z,7.77
2019-05-06T19:46:29.517Z,8.67
2019-05-06T19:48:52.997Z,11.03
2019-05-06T19:51:16.728Z,8.43
2019-05-06T19:53:42.719Z,8.20
2019-05-06T19:56:05.680Z,11.03
2019-05-06T19:58:29.140Z,7.27
2019-05-06T20:00:52.902Z,8.37
2019-05-06T20:03:17.271Z,7.73
2019-05-06T20:05:42.318Z,9.47
2019-05-06T20:08:23.379Z,8.30
2019-05-06T20:10:48.474Z,7.43
2019-05-06T20:13:13.542Z,8.97
2019-05-06T20:15:38.386Z,10.07
2019-05-06T20:18:03.010Z,6.20
2019-05-06T20:20:26.669Z,8.33
2019-05-06T20:22:50.149Z,7.47
2019-05-06T20:25:13.696Z,8.33
2019-05-06T20:27:37.118Z,5.80
2019-05-06T20:30:03.263Z,6.63
2019-05-06T20:32:25.725Z,7.73
2019-05-06T20:34:50.210Z,6.70
2019-05-06T20:37:13.663Z,5.77
2019-05-06T20:39:37.104Z,6.87
2019-05-06T20:42:02.751Z,9.93
2019-05-06T20:44:25.792Z,9.10
2019-05-06T20:46:49.228Z,8.53
2019-05-06T20:49:13.269Z,8.77
2019-05-06T20:51:36.696Z,8.73
2019-05-06T20:54:00.106Z,7.73
2019-05-06T20:56:23.567Z,6.53
2019-05-06T20:58:47.042Z,7.60
2019-05-06T21:01:10.462Z,10.20
2019-05-06T21:03:33.879Z,7.47
2019-05-06T21:05:57.668Z,9.83
2019-05-06T21:08:22.117Z,10.83
2019-05-06T21:10:45.633Z,8.80
2019-05-06T21:13:09.048Z,8.40
2019-05-06T21:15:32.678Z,10.00
2019-05-06T21:17:56.409Z,9.17
2019-05-06T21:20:19.948Z,12.18
2019-05-06T21:22:43.358Z,8.40
2019-05-06T21:25:08.259Z,9.77
2019-05-06T21:27:31.719Z,10.70
2019-05-06T21:29:55.399Z,8.37
2019-05-06T21:32:18.845Z,10.23
2019-05-06T21:34:43.217Z,9.07
2019-05-06T21:37:06.986Z,9.97
2019-05-06T21:39:32.663Z,10.70
2019-05-06T21:41:55.756Z,8.60
2019-05-06T21:44:19.523Z,8.83
2019-05-06T21:46:43.166Z,9.57
2019-05-06T21:49:06.679Z,10.90
2019-05-06T21:51:30.102Z,10.17
2019-05-06T21:53:53.544Z,10.27
2019-05-06T21:56:16.965Z,11.40
2019-05-06T21:58:42.648Z,11.23
2019-05-06T22:01:07.374Z,14.03
2019-05-06T22:03:32.778Z,12.33
2019-05-06T22:05:55.982Z,10.07
2019-05-06T22:08:19.456Z,12.53
2019-05-06T22:10:42.939Z,9.70
2019-05-06T22:13:06.403Z,10.60
2019-05-06T22:15:29.854Z,13.35
2019-05-06T22:17:54.527Z,11.30
2019-05-06T22:20:18.142Z,10.43
2019-05-06T22:22:43.241Z,9.83
2019-05-06T22:25:07.006Z,14.23
2019-05-06T22:27:30.447Z,11.40
2019-05-06T22:29:53.909Z,12.70
2019-05-06T22:32:17.368Z,13.20
2019-05-06T22:34:42.464Z,14.67
2019-05-06T22:37:06.375Z,15.53
2019-05-06T22:39:31.693Z,17.87
2019-05-06T22:41:54.969Z,15.97
2019-05-06T22:44:18.399Z,23.37
2019-05-06T22:46:42.532Z,16.47
2019-05-06T22:49:06.339Z,17.97
2019-05-06T22:51:32.163Z,17.23
2019-05-06T22:53:55.220Z,17.77
2019-05-06T22:56:18.646Z,17.57
2019-05-06T22:58:42.783Z,18.73
2019-05-06T23:01:08.074Z,18.77
2019-05-06T23:03:34.627Z,17.20
2019-05-06T23:05:57.873Z,17.93
2019-05-06T23:08:21.290Z,21.13
2019-05-06T23:10:44.763Z,16.37
2019-05-06T23:13:08.191Z,16.33
2019-05-06T23:15:34.025Z,19.00
2019-05-06T23:17:57.109Z,18.60
2019-05-06T23:20:24.180Z,16.33
2019-05-06T23:22:45.729Z,20.50
2019-05-06T23:25:09.226Z,14.03
2019-05-06T23:27:32.694Z,17.80
2019-05-06T23:29:56.122Z,17.87
2019-05-06T23:32:19.602Z,18.80
2019-05-06T23:34:43.336Z,15.87
2019-05-06T23:37:10.243Z,14.77
2019-05-06T23:40:12.621Z,16.50
2019-05-06T23:43:12.784Z,16.37
2019-05-06T23:46:12.668Z,19.30
2019-05-06T23:49:13.052Z,17.87
2019-05-06T23:52:12.775Z,18.83
2019-05-06T23:55:12.823Z,18.00
2019-05-06T23:57:35.103Z,15.57
2019-05-06T23:59:58.570Z,16.60
